Time;durP1;ratioP1;P1;durP2;ratioP2;P2;SDS_P1;SDS_P2;PMS_P1;PMS_P2;Temp;Humidity;BMP_temperature;BMP_pressure;BME280_temperature;BME280_humidity;BME280_pressure;Samples;Min_cycle;Max_cycle;Signal;HPM_P1;HPM_P2
2022/01/08 00:00:42;;;;;;;13.97;11.50;;;;;;;2.58;100.00;98507.78;5018418;28;20199;-83
2022/01/08 00:03:10;;;;;;;14.10;11.90;;;;;;;2.67;100.00;98510.00;5017713;28;20230;-83
2022/01/08 00:05:39;;;;;;;18.00;13.70;;;;;;;2.58;100.00;98502.56;5016691;28;20206;-83
2022/01/08 00:08:09;;;;;;;27.03;19.30;;;;;;;2.70;100.00;98509.03;5015160;28;20193;-82
2022/01/08 00:10:38;;;;;;;15.53;12.53;;;;;;;2.65;100.00;98506.63;5019091;28;20723;-83
2022/01/08 00:13:07;;;;;;;14.93;11.40;;;;;;;2.61;100.00;98499.84;5013236;28;20201;-83
2022/01/08 00:15:36;;;;;;;14.23;11.90;;;;;;;2.60;100.00;98500.72;5011720;28;20202;-83
2022/01/08 00:18:07;;;;;;;16.37;12.87;;;;;;;2.53;100.00;98500.16;5016163;28;20195;-83
2022/01/08 00:20:36;;;;;;;16.93;12.83;;;;;;;2.72;100.00;98505.44;5018640;28;20194;-82
2022/01/08 00:23:04;;;;;;;17.57;12.83;;;;;;;2.64;100.00;98502.31;4984500;28;20230;-83
2022/01/08 00:25:36;;;;;;;15.73;12.73;;;;;;;2.67;100.00;98503.94;4961455;28;20648;-82
2022/01/08 00:28:05;;;;;;;15.80;12.63;;;;;;;2.59;100.00;98493.78;4957703;28;20203;-83
2022/01/08 00:30:37;;;;;;;14.77;12.97;;;;;;;2.60;100.00;98495.50;4961846;28;20216;-84
2022/01/08 00:33:06;;;;;;;16.93;12.40;;;;;;;2.61;100.00;98493.75;4955162;28;20197;-83
2022/01/08 00:35:34;;;;;;;15.23;12.07;;;;;;;2.66;100.00;98497.84;4956739;28;20200;-83
2022/01/08 00:38:02;;;;;;;16.10;12.53;;;;;;;2.54;100.00;98501.00;4950950;28;20212;-83
2022/01/08 00:40:31;;;;;;;16.60;13.10;;;;;;;2.59;100.00;98491.19;4947322;28;20200;-83
2022/01/08 00:43:06;;;;;;;15.67;12.57;;;;;;;2.67;100.00;98498.72;4965693;28;20234;-84
2022/01/08 00:45:34;;;;;;;16.60;12.97;;;;;;;2.63;100.00;98491.91;5026697;28;20178;-80
2022/01/08 00:48:04;;;;;;;15.90;12.47;;;;;;;2.63;100.00;98491.91;5039082;28;20321;-83
2022/01/08 00:50:32;;;;;;;16.17;12.27;;;;;;;2.67;100.00;98494.31;4965178;28;20251;-83
2022/01/08 00:53:00;;;;;;;13.70;11.67;;;;;;;2.62;100.00;98488.47;4960062;28;20204;-83
2022/01/08 00:55:30;;;;;;;16.30;11.93;;;;;;;2.68;100.00;98488.19;4955670;28;20204;-83
2022/01/08 00:58:02;;;;;;;15.40;12.10;;;;;;;2.64;100.00;98489.25;4959992;28;20236;-83
2022/01/08 01:00:30;;;;;;;14.40;11.50;;;;;;;2.62;100.00;98490.22;4951361;28;20201;-83
2022/01/08 01:02:59;;;;;;;15.40;11.27;;;;;;;2.59;100.00;98486.81;4960706;28;20197;-83
2022/01/08 01:05:28;;;;;;;14.97;11.40;;;;;;;2.62;100.00;98482.38;4956137;28;20211;-83
2022/01/08 01:07:58;;;;;;;15.00;10.97;;;;;;;2.65;100.00;98480.47;4957953;28;20208;-84
2022/01/08 01:10:28;;;;;;;17.33;12.73;;;;;;;2.70;100.00;98478.53;4952988;28;20220;-84
2022/01/08 01:12:56;;;;;;;14.40;11.67;;;;;;;2.63;100.00;98481.47;4947441;28;20192;-84
2022/01/08 01:15:27;;;;;;;15.77;11.57;;;;;;;2.63;100.00;98481.47;4924998;29;20202;-84
2022/01/08 01:17:55;;;;;;;13.70;10.57;;;;;;;2.63;100.00;98478.84;4958672;28;20199;-84
2022/01/08 01:20:23;;;;;;;11.57;8.40;;;;;;;2.53;100.00;98479.25;4958342;29;20208;-83
2022/01/08 01:22:57;;;;;;;11.10;8.30;;;;;;;2.47;100.00;98471.66;4955698;29;20240;-84
2022/01/08 01:25:31;;;;;;;10.13;7.80;;;;;;;2.66;100.00;98463.03;4970204;28;20197;-85
2022/01/08 01:42:12;;;;;;;4.00;3.27;;;;;;;2.48;100.00;98456.81;5022949;28;20205;-85
2022/01/08 01:47:33;;;;;;;7.70;4.57;;;;;;;2.43;100.00;98456.19;5020278;28;20206;-85
2022/01/08 01:50:05;;;;;;;6.93;4.47;;;;;;;2.46;100.00;98456.03;5012436;28;20190;-86
2022/01/08 01:52:33;;;;;;;6.77;4.97;;;;;;;2.41;100.00;98447.53;5006359;28;20684;-86
2022/01/08 01:55:04;;;;;;;6.60;5.37;;;;;;;2.36;100.00;98446.91;5012792;28;20733;-86
2022/01/08 01:57:33;;;;;;;6.03;4.63;;;;;;;2.42;100.00;98444.88;5014799;28;20649;-86
2022/01/08 02:00:06;;;;;;;6.03;5.07;;;;;;;2.23;100.00;98444.81;4935381;29;20256;-87
2022/01/08 02:02:36;;;;;;;7.30;5.30;;;;;;;2.27;100.00;98437.69;4934876;29;20189;-86
2022/01/08 02:05:06;;;;;;;6.17;5.13;;;;;;;2.32;100.00;98432.25;4932535;29;20229;-85
2022/01/08 02:07:34;;;;;;;6.90;5.13;;;;;;;2.11;100.00;98431.38;4928334;29;20213;-85
2022/01/08 02:10:04;;;;;;;7.77;5.77;;;;;;;2.24;100.00;98435.22;4931069;29;20328;-86
2022/01/08 02:12:35;;;;;;;11.03;8.17;;;;;;;2.19;100.00;98430.16;4928362;29;20193;-85
2022/01/08 02:15:06;;;;;;;11.43;8.53;;;;;;;2.22;100.00;98432.66;4927232;29;20305;-84
2022/01/08 02:17:36;;;;;;;9.60;6.97;;;;;;;2.19;100.00;98429.31;4944550;28;20206;-85
2022/01/08 02:20:08;;;;;;;8.70;6.60;;;;;;;2.13;100.00;98426.97;5006497;28;20206;-87
2022/01/08 02:22:36;;;;;;;6.23;5.37;;;;;;;2.17;100.00;98424.16;5011184;28;20230;-85
2022/01/08 02:25:05;;;;;;;6.70;5.30;;;;;;;2.21;100.00;98422.25;5004955;28;20277;-86
2022/01/08 02:27:34;;;;;;;8.00;5.37;;;;;;;2.29;100.00;98425.41;5009970;28;20210;-87
2022/01/08 02:30:04;;;;;;;5.87;4.87;;;;;;;2.12;100.00;98420.88;5003549;28;20728;-86
2022/01/08 02:32:32;;;;;;;6.67;5.03;;;;;;;2.08;100.00;98421.06;5010243;28;20222;-86
2022/01/08 02:35:01;;;;;;;6.37;4.80;;;;;;;2.12;100.00;98417.41;5008805;28;20210;-87
2022/01/08 02:37:33;;;;;;;4.63;4.13;;;;;;;2.28;100.00;98418.47;5007173;28;20198;-87
2022/01/08 02:40:04;;;;;;;6.33;4.30;;;;;;;2.15;100.00;98422.53;5003637;28;20680;-87
2022/01/08 02:42:38;;;;;;;4.67;3.60;;;;;;;2.16;100.00;98425.06;5014230;28;20198;-87
2022/01/08 02:45:08;;;;;;;3.87;3.47;;;;;;;2.11;100.00;98424.41;5010533;28;20201;-87
2022/01/08 02:47:36;;;;;;;4.63;3.77;;;;;;;2.15;100.00;98420.75;5007791;28;20198;-87
2022/01/08 02:50:06;;;;;;;5.13;4.03;;;;;;;2.09;100.00;98415.78;4950531;28;20204;-88
2022/01/08 02:52:40;;;;;;;4.77;3.77;;;;;;;2.08;100.00;98426.31;4949728;28;20220;-87
2022/01/08 02:55:09;;;;;;;4.60;3.67;;;;;;;2.00;100.00;98419.63;4949984;29;20195;-88
2022/01/08 02:57:37;;;;;;;5.33;4.20;;;;;;;2.09;100.00;98428.00;4950896;28;20304;-85
2022/01/08 03:00:08;;;;;;;4.80;4.30;;;;;;;2.06;100.00;98430.75;4910384;29;20208;-85
2022/01/08 03:02:41;;;;;;;6.30;4.33;;;;;;;1.98;100.00;98431.06;4913400;29;20209;-83
2022/01/08 03:05:11;;;;;;;6.33;4.37;;;;;;;1.90;100.00;98433.97;4938639;29;20206;-87
2022/01/08 03:07:42;;;;;;;6.90;5.13;;;;;;;1.98;100.00;98421.47;4920891;29;20205;-86
2022/01/08 03:10:12;;;;;;;7.43;5.80;;;;;;;1.97;100.00;98425.00;4915907;29;20198;-88
2022/01/08 03:12:42;;;;;;;7.97;5.90;;;;;;;1.98;100.00;98433.66;4911291;29;20224;-88
2022/01/08 03:15:11;;;;;;;9.00;6.07;;;;;;;1.97;100.00;98425.00;4954587;28;20204;-86
2022/01/08 03:17:39;;;;;;;8.83;6.50;;;;;;;1.96;100.00;98423.28;4944795;28;20663;-86
2022/01/08 03:20:11;;;;;;;9.30;7.30;;;;;;;1.84;100.00;98422.94;5012046;28;20186;-86
2022/01/08 03:22:45;;;;;;;10.33;7.87;;;;;;;1.89;100.00;98413.16;5011746;28;20685;-87
2022/01/08 03:25:14;;;;;;;9.33;6.67;;;;;;;1.88;100.00;98417.53;5016249;28;20302;-87
2022/01/08 03:27:42;;;;;;;11.47;7.43;;;;;;;1.84;100.00;98420.34;5014594;28;20201;-87
2022/01/08 03:30:13;;;;;;;9.90;7.53;;;;;;;1.83;100.00;98414.25;5009831;28;20199;-86
2022/01/08 03:32:41;;;;;;;10.37;6.93;;;;;;;1.85;100.00;98417.66;5014057;28;20713;-86
2022/01/08 03:35:10;;;;;;;10.53;7.53;;;;;;;1.88;100.00;98409.69;5008477;28;20202;-84
2022/01/08 03:37:39;;;;;;;9.90;7.13;;;;;;;1.89;100.00;98410.53;5011924;28;20198;-86
2022/01/08 03:40:10;;;;;;;12.13;7.10;;;;;;;1.90;100.00;98407.88;5034821;28;20198;-80
2022/01/08 03:42:41;;;;;;;9.70;7.57;;;;;;;1.89;100.00;98413.16;5033793;28;20242;-85
2022/01/08 03:45:10;;;;;;;10.03;7.10;;;;;;;1.85;100.00;98411.59;5012236;28;20197;-85
2022/01/08 03:50:24;;;;;;;10.00;7.33;;;;;;;2.02;100.00;98406.50;5012020;28;20649;-84
2022/01/08 03:52:52;;;;;;;8.93;6.37;;;;;;;1.97;100.00;98400.63;5008281;28;20230;-84
2022/01/08 03:55:22;;;;;;;9.47;6.80;;;;;;;2.07;100.00;98401.09;5011475;28;20202;-83
2022/01/08 03:57:51;;;;;;;9.17;6.70;;;;;;;2.04;100.00;98396.88;5012083;28;20205;-85
2022/01/08 04:00:19;;;;;;;9.03;6.90;;;;;;;2.10;100.00;98399.19;5009992;28;20646;-84
2022/01/08 04:02:47;;;;;;;9.43;6.43;;;;;;;2.10;100.00;98390.50;5017300;28;20224;-83
2022/01/08 04:05:16;;;;;;;8.80;6.30;;;;;;;2.08;100.00;98392.34;5012505;28;20281;-84
2022/01/08 04:07:44;;;;;;;9.70;6.70;;;;;;;2.05;100.00;98393.34;5014653;28;20210;-84
2022/01/08 04:10:12;;;;;;;7.90;6.10;;;;;;;2.03;100.00;98392.56;5017243;28;20206;-85
2022/01/08 04:12:46;;;;;;;7.87;5.80;;;;;;;2.09;100.00;98389.66;5014985;28;20229;-83
2022/01/08 04:15:37;;;;;;;8.90;6.13;;;;;;;2.18;100.00;98399.72;5016314;28;20187;-84
2022/01/08 04:18:06;;;;;;;8.70;6.60;;;;;;;2.09;100.00;98401.88;5020904;28;20712;-84
2022/01/08 04:20:43;;;;;;;8.53;6.27;;;;;;;2.00;100.00;98405.72;5021018;28;20286;-83
2022/01/08 04:23:14;;;;;;;8.70;6.50;;;;;;;2.02;100.00;98411.72;5021319;28;20218;-85
2022/01/08 04:25:42;;;;;;;9.73;7.00;;;;;;;1.89;100.00;98426.22;5035246;28;20213;-78
2022/01/08 04:28:12;;;;;;;13.00;7.03;;;;;;;1.77;100.00;98426.72;5037142;28;20265;-79
2022/01/08 04:30:40;;;;;;;18.37;7.30;;;;;;;1.74;100.00;98438.13;5035065;28;20190;-84
2022/01/08 04:33:08;;;;;;;32.20;8.40;;;;;;;1.73;100.00;98445.09;5034961;28;20210;-83
2022/01/08 04:35:37;;;;;;;16.97;7.97;;;;;;;1.73;100.00;98444.25;5034130;28;20203;-86
2022/01/08 04:38:05;;;;;;;19.43;8.73;;;;;;;1.62;100.00;98449.03;5017597;28;20241;-84
2022/01/08 04:40:34;;;;;;;49.40;10.83;;;;;;;1.58;100.00;98458.75;5010183;28;20268;-86
2022/01/08 04:43:03;;;;;;;16.30;9.43;;;;;;;1.55;100.00;98448.44;5018308;28;20205;-86
2022/01/08 04:45:35;;;;;;;24.70;9.50;;;;;;;1.55;100.00;98460.66;5010174;28;20206;-85
2022/01/08 04:48:03;;;;;;;22.63;9.60;;;;;;;1.61;100.00;98478.66;5010352;28;20237;-86
2022/01/08 04:50:31;;;;;;;120.00;13.80;;;;;;;1.54;100.00;98474.56;5011246;28;20279;-86
2022/01/08 04:53:00;;;;;;;49.10;7.17;;;;;;;1.58;100.00;98477.03;5015442;28;20241;-86
2022/01/08 04:55:28;;;;;;;7.77;4.40;;;;;;;1.57;100.00;98482.31;5010629;28;20203;-88
2022/01/08 04:57:56;;;;;;;6.57;4.63;;;;;;;1.54;100.00;98478.03;5012567;28;20244;-86
2022/01/08 05:00:25;;;;;;;16.50;5.77;;;;;;;1.35;100.00;98490.97;5011623;28;20203;-87
2022/01/08 05:02:55;;;;;;;6.80;3.93;;;;;;;1.47;100.00;98496.63;5012590;28;20202;-87
2022/01/08 05:05:23;;;;;;;8.03;3.83;;;;;;;1.50;100.00;98496.50;5012382;28;20214;-87
2022/01/08 05:07:51;;;;;;;4.70;3.40;;;;;;;1.48;100.00;98498.31;5011290;28;20226;-86
2022/01/08 05:10:19;;;;;;;6.47;4.40;;;;;;;1.59;100.00;98503.97;4993713;28;20256;-86
2022/01/08 05:12:47;;;;;;;6.10;4.47;;;;;;;1.57;100.00;98505.78;5006299;28;20226;-86
2022/01/08 05:15:17;;;;;;;8.30;4.93;;;;;;;1.58;100.00;98510.94;5010750;28;20213;-87
2022/01/08 05:17:52;;;;;;;11.30;5.47;;;;;;;1.59;100.00;98514.41;5015319;28;20202;-87
2022/01/08 05:20:24;;;;;;;6.87;4.93;;;;;;;1.68;100.00;98517.53;5015217;28;20190;-86
2022/01/08 05:22:59;;;;;;;8.67;5.43;;;;;;;1.67;100.00;98513.22;5013122;28;20681;-86
2022/01/08 05:25:29;;;;;;;9.97;6.00;;;;;;;1.68;100.00;98527.09;5007410;28;20198;-86
2022/01/08 05:28:00;;;;;;;8.90;5.10;;;;;;;1.66;100.00;98529.78;5014762;28;20226;-86
2022/01/08 05:30:29;;;;;;;14.93;5.87;;;;;;;1.66;100.00;98523.72;5007218;28;20668;-85
2022/01/08 05:32:58;;;;;;;15.93;7.37;;;;;;;1.69;100.00;98524.44;5015001;28;20218;-85
2022/01/08 05:35:29;;;;;;;37.10;9.10;;;;;;;1.67;100.00;98528.88;5009665;28;20198;-87
2022/01/08 05:38:00;;;;;;;22.27;7.33;;;;;;;1.60;100.00;98532.63;5010148;28;20203;-86
2022/01/08 05:40:28;;;;;;;15.00;6.47;;;;;;;1.53;100.00;98538.13;5010559;28;20198;-86
2022/01/08 05:42:57;;;;;;;21.13;7.77;;;;;;;1.55;100.00;98541.53;5014843;28;20198;-87
2022/01/08 05:45:25;;;;;;;34.13;9.60;;;;;;;1.57;100.00;98540.56;4994236;28;20194;-81
2022/01/08 05:47:53;;;;;;;63.73;10.10;;;;;;;1.41;100.00;98544.66;5033243;28;20182;-85
2022/01/08 05:50:22;;;;;;;38.97;9.33;;;;;;;1.41;100.00;98544.66;5019589;28;20216;-85
2022/01/08 05:52:51;;;;;;;28.83;7.83;;;;;;;1.40;100.00;98563.81;5021210;28;20222;-78
2022/01/08 05:55:20;;;;;;;15.00;7.30;;;;;;;1.49;100.00;98554.81;5032470;28;20262;-83
2022/01/08 05:57:48;;;;;;;13.33;6.53;;;;;;;1.36;100.00;98559.63;5013742;28;20197;-86
2022/01/08 06:00:16;;;;;;;13.03;6.33;;;;;;;1.19;100.00;98559.38;5007624;28;20204;-86
2022/01/08 06:02:45;;;;;;;10.70;6.23;;;;;;;1.17;100.00;98564.66;5006222;28;20199;-87
2022/01/08 06:05:13;;;;;;;9.33;5.40;;;;;;;1.18;100.00;98570.72;5009039;28;20650;-87
2022/01/08 06:07:41;;;;;;;7.97;5.10;;;;;;;1.23;100.00;98571.41;5015222;28;20209;-88
2022/01/08 06:10:12;;;;;;;13.17;6.00;;;;;;;1.15;100.00;98577.72;5009742;28;20206;-86
2022/01/08 06:12:40;;;;;;;12.80;5.67;;;;;;;1.27;100.00;98583.44;5006569;28;20646;-87
2022/01/08 06:15:10;;;;;;;11.70;6.37;;;;;;;1.23;100.00;98590.50;5013961;28;20198;-87
2022/01/08 06:17:38;;;;;;;10.87;6.30;;;;;;;1.20;100.00;98592.38;5011493;28;20198;-87
2022/01/08 06:20:08;;;;;;;12.63;6.47;;;;;;;1.19;100.00;98599.34;5009631;28;20628;-87
2022/01/08 06:22:36;;;;;;;14.73;6.53;;;;;;;1.19;100.00;98594.13;5017785;28;20222;-86
2022/01/08 06:25:06;;;;;;;12.20;6.80;;;;;;;1.16;100.00;98604.69;5013839;28;20329;-86
2022/01/08 06:27:36;;;;;;;11.40;6.47;;;;;;;1.08;100.00;98607.56;5014582;28;20237;-82
2022/01/08 06:30:05;;;;;;;10.83;5.90;;;;;;;1.10;100.00;98602.28;5012801;28;20210;-88
2022/01/08 06:32:35;;;;;;;12.80;7.00;;;;;;;1.18;100.00;98609.84;4931283;29;20201;-86
2022/01/08 06:35:04;;;;;;;10.90;5.90;;;;;;;0.97;100.00;98611.44;4934455;29;20193;-87
2022/01/08 06:37:32;;;;;;;10.73;6.57;;;;;;;0.89;100.00;98609.09;4931482;29;20244;-87
2022/01/08 06:40:00;;;;;;;11.90;6.17;;;;;;;0.84;100.00;98608.38;4933322;29;20248;-86
2022/01/08 06:42:29;;;;;;;11.73;6.30;;;;;;;0.75;100.00;98622.56;4934639;29;20204;-87
2022/01/08 06:44:59;;;;;;;14.27;7.20;;;;;;;0.81;100.00;98622.38;4928964;29;20260;-87
2022/01/08 06:47:27;;;;;;;11.93;6.90;;;;;;;0.84;100.00;98622.25;4932435;29;20205;-88
2022/01/08 06:49:55;;;;;;;12.33;6.43;;;;;;;0.84;100.00;98632.69;4942346;28;20209;-88
2022/01/08 06:52:23;;;;;;;10.63;6.67;;;;;;;0.95;100.00;98628.88;5011447;28;20237;-86
2022/01/08 06:54:52;;;;;;;15.43;7.10;;;;;;;1.10;100.00;98631.81;5013129;28;20255;-88
2022/01/08 06:57:23;;;;;;;11.07;6.57;;;;;;;1.13;100.00;98630.84;5008026;28;20715;-87
2022/01/08 06:59:51;;;;;;;11.20;6.40;;;;;;;1.17;100.00;98639.44;5013621;28;20190;-88
2022/01/08 07:02:22;;;;;;;12.37;6.77;;;;;;;1.28;100.00;98637.31;5010900;28;20213;-87
2022/01/08 07:04:50;;;;;;;12.83;7.23;;;;;;;1.17;100.00;98645.50;5009006;28;20195;-85
2022/01/08 07:07:18;;;;;;;12.70;7.00;;;;;;;1.21;100.00;98654.91;5008977;28;20696;-87
2022/01/08 07:09:47;;;;;;;11.93;7.43;;;;;;;1.33;100.00;98651.03;5008751;28;20205;-87
2022/01/08 07:12:15;;;;;;;13.17;7.10;;;;;;;1.26;100.00;98645.19;5008872;28;20191;-88
2022/01/08 07:14:43;;;;;;;12.17;6.93;;;;;;;1.14;100.00;98645.59;5002525;28;20226;-87
2022/01/08 07:17:11;;;;;;;10.03;6.43;;;;;;;1.30;100.00;98656.34;4976654;28;20202;-87
2022/01/08 07:19:41;;;;;;;11.77;6.70;;;;;;;1.36;100.00;98661.38;5003014;28;20202;-86
2022/01/08 07:22:10;;;;;;;9.60;6.57;;;;;;;1.40;100.00;98670.78;5014681;28;20225;-86
2022/01/08 07:24:38;;;;;;;13.37;6.90;;;;;;;1.34;100.00;98681.41;5007887;28;20202;-87
2022/01/08 07:27:07;;;;;;;10.27;6.40;;;;;;;1.48;100.00;98679.19;5011650;28;20194;-87
2022/01/08 07:29:36;;;;;;;11.27;6.93;;;;;;;1.46;100.00;98685.38;4971831;28;20261;-87
2022/01/08 07:32:06;;;;;;;10.97;6.63;;;;;;;1.30;100.00;98683.28;5008834;28;20210;-88
2022/01/08 07:34:34;;;;;;;11.17;7.20;;;;;;;1.15;100.00;98687.25;5010354;28;20225;-86
2022/01/08 07:37:05;;;;;;;11.57;7.07;;;;;;;1.26;100.00;98686.94;5007981;28;20202;-87
2022/01/08 07:39:33;;;;;;;10.90;6.87;;;;;;;1.20;100.00;98694.94;5006225;28;20190;-87
2022/01/08 07:42:01;;;;;;;11.00;6.00;;;;;;;1.24;100.00;98695.69;5010508;28;20206;-85
2022/01/08 07:44:30;;;;;;;9.73;5.53;;;;;;;1.27;100.00;98700.81;5010533;28;20202;-86
2022/01/08 07:47:00;;;;;;;8.53;5.50;;;;;;;1.39;100.00;98700.38;4973617;28;20225;-85
2022/01/08 07:49:28;;;;;;;10.83;5.83;;;;;;;1.47;100.00;98698.38;5009789;28;20198;-85
2022/01/08 07:51:56;;;;;;;9.23;6.40;;;;;;;1.51;100.00;98694.75;5007409;28;20198;-86
2022/01/08 07:54:26;;;;;;;9.90;5.93;;;;;;;1.56;100.00;98692.84;5011161;28;20222;-87
2022/01/08 07:56:54;;;;;;;9.20;5.43;;;;;;;1.50;100.00;98700.88;5016836;28;20226;-86
2022/01/08 07:59:23;;;;;;;43.03;28.77;;;;;;;1.39;100.00;98705.59;5011385;28;20210;-87
2022/01/08 08:01:51;;;;;;;20.50;13.60;;;;;;;1.28;100.00;98707.72;5012983;28;20186;-86
2022/01/08 08:04:19;;;;;;;14.20;10.97;;;;;;;1.21;100.00;98712.28;5010953;28;20194;-86
2022/01/08 08:06:48;;;;;;;12.40;7.40;;;;;;;1.02;100.00;98716.41;5006021;28;20199;-86
2022/01/08 08:09:16;;;;;;;14.10;7.60;;;;;;;0.83;100.00;98719.59;5013293;28;20210;-84
2022/01/08 08:11:46;;;;;;;13.07;8.83;;;;;;;0.78;100.00;98728.50;5010948;28;20209;-86
2022/01/08 08:14:15;;;;;;;16.80;13.87;;;;;;;0.84;100.00;98728.28;5014859;28;20249;-86
2022/01/08 08:16:43;;;;;;;13.43;9.67;;;;;;;0.84;100.00;98738.72;5010004;28;20211;-86
2022/01/08 08:19:12;;;;;;;10.87;6.37;;;;;;;0.96;100.00;98743.53;5007026;28;20206;-86
2022/01/08 08:21:40;;;;;;;12.03;6.50;;;;;;;1.06;100.00;98744.09;5010762;28;20261;-87
2022/01/08 08:24:08;;;;;;;12.10;5.67;;;;;;;1.29;100.00;98741.59;5012366;28;20226;-86
2022/01/08 08:26:38;;;;;;;10.20;6.77;;;;;;;1.42;100.00;98739.41;5011537;28;20198;-87
2022/01/08 08:29:08;;;;;;;9.57;6.33;;;;;;;1.37;100.00;98739.59;5013207;28;20199;-86
2022/01/08 08:31:37;;;;;;;8.80;6.03;;;;;;;1.62;100.00;98744.78;5013234;28;20201;-87
2022/01/08 08:34:09;;;;;;;11.00;6.13;;;;;;;1.68;100.00;98735.91;4969605;28;20299;-85
2022/01/08 08:36:38;;;;;;;17.27;6.90;;;;;;;1.67;100.00;98737.69;4968066;28;20207;-86
2022/01/08 08:39:06;;;;;;;13.03;6.67;;;;;;;1.78;100.00;98745.13;4971609;28;20244;-86
2022/01/08 08:41:35;;;;;;;10.90;6.90;;;;;;;1.82;100.00;98738.03;4968245;28;20196;-87
2022/01/08 08:44:06;;;;;;;12.63;6.67;;;;;;;1.86;100.00;98740.50;4969797;28;20203;-85
2022/01/08 08:46:40;;;;;;;18.20;11.83;;;;;;;1.86;100.00;98737.88;4992660;28;20231;-79
2022/01/08 08:49:08;;;;;;;10.80;6.47;;;;;;;1.86;100.00;98737.03;4975365;28;20236;-87
2022/01/08 08:51:36;;;;;;;11.60;7.10;;;;;;;2.13;100.00;98736.03;4960448;28;20191;-87
2022/01/08 08:54:06;;;;;;;11.23;6.73;;;;;;;2.03;100.00;98731.19;5010396;28;20222;-87
2022/01/08 08:56:35;;;;;;;12.57;5.87;;;;;;;2.20;100.00;98734.03;5008985;28;20252;-87
2022/01/08 08:59:03;;;;;;;12.33;7.20;;;;;;;2.32;100.00;98733.59;5013451;28;20198;-87
2022/01/08 09:01:31;;;;;;;9.47;6.40;;;;;;;2.30;100.00;98733.63;5008874;28;20206;-86
2022/01/08 09:04:02;;;;;;;9.53;6.27;;;;;;;2.25;100.00;98739.94;5010746;28;20196;-87
2022/01/08 09:06:31;;;;;;;9.17;6.00;;;;;;;2.41;100.00;98735.84;5010654;28;20260;-86
2022/01/08 09:09:00;;;;;;;11.00;5.87;;;;;;;2.23;100.00;98747.00;5010130;28;20202;-86
2022/01/08 09:11:29;;;;;;;49.47;32.13;;;;;;;1.92;100.00;98745.47;5008571;28;20210;-85
2022/01/08 09:13:57;;;;;;;42.47;27.20;;;;;;;1.93;100.00;98747.22;5013253;28;20198;-85
2022/01/08 09:16:26;;;;;;;659.77;382.37;;;;;;;1.93;100.00;98739.38;4978946;28;20198;-88
2022/01/08 09:18:54;;;;;;;39.37;22.40;;;;;;;1.92;100.00;98744.63;5010097;28;20194;-87
2022/01/08 09:21:24;;;;;;;16.97;11.40;;;;;;;1.97;100.00;98756.63;5008381;28;20215;-86
2022/01/08 09:23:52;;;;;;;15.60;7.37;;;;;;;2.21;100.00;98749.63;5014601;28;20272;-87
2022/01/08 09:26:21;;;;;;;11.67;7.87;;;;;;;2.50;100.00;98752.94;5011972;28;20210;-86
2022/01/08 09:28:49;;;;;;;15.87;8.60;;;;;;;2.61;100.00;98750.78;5015872;28;20199;-86
2022/01/08 09:31:18;;;;;;;14.83;9.87;;;;;;;2.74;100.00;98749.38;5009501;28;20206;-87
2022/01/08 09:33:47;;;;;;;17.93;14.50;;;;;;;2.36;100.00;98757.84;5012702;28;20194;-87
2022/01/08 09:36:15;;;;;;;36.07;32.53;;;;;;;2.41;100.00;98750.66;5012145;28;20222;-87
2022/01/08 09:38:45;;;;;;;16.80;11.53;;;;;;;2.20;100.00;98753.16;5011457;28;20206;-86
2022/01/08 09:41:13;;;;;;;17.03;10.90;;;;;;;2.41;100.00;98753.28;5011801;28;20194;-87
2022/01/08 09:43:41;;;;;;;14.87;10.53;;;;;;;2.11;100.00;98761.34;5003084;28;20214;-87
2022/01/08 09:46:14;;;;;;;20.63;11.13;;;;;;;1.94;100.00;98761.13;5012788;28;20229;-87
2022/01/08 09:48:42;;;;;;;16.43;11.50;;;;;;;1.92;100.00;98761.13;5009905;28;20206;-87
2022/01/08 09:51:11;;;;;;;19.37;11.60;;;;;;;1.83;100.00;98752.78;5011936;28;20190;-87
2022/01/08 09:53:39;;;;;;;21.17;13.43;;;;;;;2.26;100.00;98754.72;4973654;28;20207;-86
2022/01/08 09:56:10;;;;;;;19.20;12.43;;;;;;;2.22;100.00;98755.72;4972365;28;20227;-86
2022/01/08 09:58:38;;;;;;;23.07;13.47;;;;;;;2.38;100.00;98750.78;4893833;29;20205;-87
2022/01/08 10:01:25;;;;;;;19.03;12.13;;;;;;;2.40;100.00;98767.25;4892128;29;20707;-87
2022/01/08 10:03:54;;;;;;;22.57;14.40;;;;;;;2.24;100.00;98767.00;4898639;29;20206;-86
2022/01/08 10:06:24;;;;;;;26.37;15.60;;;;;;;1.94;100.00;98772.41;4899650;29;20198;-86
2022/01/08 10:08:53;;;;;;;24.73;14.77;;;;;;;2.01;100.00;98767.78;4893605;29;20418;-86
2022/01/08 10:11:24;;;;;;;25.33;15.67;;;;;;;2.04;100.00;98767.72;4905551;29;20775;-85
2022/01/08 10:14:02;;;;;;;29.47;15.53;;;;;;;2.16;100.00;98767.25;4933760;29;20189;-87
2022/01/08 10:19:24;;;;;;;20.33;12.97;;;;;;;1.91;100.00;98759.44;5014425;28;20234;-87
2022/01/08 10:21:55;;;;;;;20.37;12.50;;;;;;;2.10;100.00;98759.63;5012852;28;20273;-86
2022/01/08 10:24:27;;;;;;;20.70;14.07;;;;;;;2.37;100.00;98754.31;5008545;28;20697;-85
2022/01/08 10:27:04;;;;;;;21.53;12.80;;;;;;;2.30;100.00;98744.06;5014210;28;20197;-87
2022/01/08 10:29:34;;;;;;;29.43;15.33;;;;;;;2.41;100.00;98753.28;5014153;28;20195;-86
2022/01/08 10:32:08;;;;;;;25.57;15.63;;;;;;;2.56;100.00;98739.63;5009906;28;20332;-90
2022/01/08 10:34:36;;;;;;;32.80;15.47;;;;;;;2.53;100.00;98743.22;4976849;28;20249;-89
2022/01/08 10:37:07;;;;;;;20.57;13.97;;;;;;;2.42;100.00;98740.19;5006819;28;20195;-85
2022/01/08 10:39:38;;;;;;;23.83;12.67;;;;;;;2.08;100.00;98744.94;5002321;28;20204;-87
2022/01/08 10:42:13;;;;;;;21.73;13.63;;;;;;;1.94;100.00;98761.13;5007404;28;20237;-87
2022/01/08 10:44:43;;;;;;;28.80;13.73;;;;;;;1.85;100.00;98751.00;5010550;28;20202;-88
2022/01/08 10:47:16;;;;;;;24.70;14.17;;;;;;;2.01;100.00;98750.38;5010988;28;20190;-87
2022/01/08 10:49:48;;;;;;;27.80;15.10;;;;;;;2.08;100.00;98753.63;5008003;28;20261;-90
2022/01/08 10:52:19;;;;;;;27.67;15.53;;;;;;;1.88;100.00;98756.94;5007434;28;20206;-88
2022/01/08 10:54:57;;;;;;;25.73;15.70;;;;;;;2.04;100.00;98766.88;5011163;28;20206;-88
2022/01/08 10:57:34;;;;;;;23.47;14.47;;;;;;;1.93;100.00;98759.38;5001014;28;20197;-87
2022/01/08 11:00:05;;;;;;;24.70;12.77;;;;;;;1.92;100.00;98774.19;5011114;28;20228;-87
2022/01/08 11:02:34;;;;;;;25.20;13.93;;;;;;;1.80;100.00;98769.41;5007134;28;20194;-88
2022/01/08 11:05:06;;;;;;;21.00;12.93;;;;;;;1.89;100.00;98761.25;5007341;28;20209;-88
2022/01/08 11:07:37;;;;;;;21.57;12.03;;;;;;;2.00;100.00;98766.94;4952370;28;20281;-89
2022/01/08 11:10:08;;;;;;;22.60;12.40;;;;;;;1.92;100.00;98752.47;4914016;29;20202;-88
2022/01/08 11:12:42;;;;;;;21.27;12.53;;;;;;;2.13;100.00;98756.94;4914056;29;20229;-88
2022/01/08 11:15:35;;;;;;;23.63;12.47;;;;;;;2.05;100.00;98751.13;4867838;29;20193;-87
2022/01/08 11:18:05;;;;;;;20.30;11.47;;;;;;;2.18;100.00;98754.13;4916818;29;20198;-89
2022/01/08 11:20:57;;;;;;;23.77;12.47;;;;;;;2.22;100.00;98743.53;4889247;29;20242;-92
2022/01/08 11:23:35;;;;;;;20.20;11.73;;;;;;;2.16;100.00;98750.72;4914002;29;20334;-88
2022/01/08 11:26:04;;;;;;;20.43;12.30;;;;;;;2.06;100.00;98750.22;4953106;28;20202;-92
2022/01/08 11:28:37;;;;;;;19.83;11.70;;;;;;;1.99;100.00;98746.13;5001190;28;20256;-91
2022/01/08 11:31:10;;;;;;;25.03;11.23;;;;;;;1.95;100.00;98741.91;5017499;28;20186;-91
2022/01/08 11:33:44;;;;;;;22.30;11.43;;;;;;;1.94;100.00;98745.44;5009865;28;20230;-91
2022/01/08 11:36:14;;;;;;;18.33;11.60;;;;;;;1.82;100.00;98728.44;5014240;28;20226;-89
2022/01/08 11:38:54;;;;;;;20.10;10.47;;;;;;;1.97;100.00;98729.66;5013044;28;20178;-87
2022/01/08 11:41:25;;;;;;;25.60;12.77;;;;;;;1.92;100.00;98735.03;5034896;28;20190;-86
2022/01/08 11:43:56;;;;;;;20.43;10.43;;;;;;;2.04;100.00;98736.38;5016926;28;20207;-89
2022/01/08 11:46:25;;;;;;;21.57;11.20;;;;;;;2.14;100.00;98726.44;5006781;28;20202;-88
2022/01/08 11:48:55;;;;;;;17.73;10.67;;;;;;;2.18;100.00;98712.34;5012024;28;20206;-89
2022/01/08 11:51:27;;;;;;;17.97;10.80;;;;;;;2.18;100.00;98712.34;5009163;28;20202;-90
2022/01/08 11:53:58;;;;;;;24.07;11.70;;;;;;;2.41;100.00;98706.25;5015695;28;20195;-88
2022/01/08 11:56:32;;;;;;;18.83;10.57;;;;;;;2.61;100.00;98702.88;5014489;28;20222;-90
2022/01/08 11:59:18;;;;;;;19.40;9.93;;;;;;;2.74;100.00;98697.09;4974520;28;20706;-89